createdAt,value
2019-01-14T12:42:55.526Z,22.86
2019-01-14T12:45:25.073Z,22.12
2019-01-14T12:47:54.499Z,21.98
2019-01-14T12:50:23.986Z,21.89
2019-01-14T12:58:09.274Z,22.70
2019-01-14T13:00:38.613Z,22.17
2019-01-14T13:03:11.047Z,22.11
2019-01-14T13:05:40.383Z,22.14
2019-01-14T13:08:09.739Z,22.20
2019-01-14T13:10:39.072Z,22.24
2019-01-14T13:13:08.515Z,22.32
2019-01-14T13:15:38.096Z,22.31
2019-01-14T13:18:07.401Z,22.31
2019-01-14T13:20:36.759Z,22.37
2019-01-14T13:23:06.210Z,22.46
2019-01-14T13:25:35.520Z,22.60
2019-01-14T13:28:04.826Z,22.76
2019-01-14T13:30:34.110Z,22.72
2019-01-14T13:33:03.387Z,22.65
2019-01-14T13:35:32.758Z,22.59
2019-01-14T13:38:02.076Z,22.53
2019-01-14T13:40:31.412Z,22.48
2019-01-14T13:43:00.858Z,22.44
2019-01-14T13:45:30.198Z,22.43
2019-01-14T13:58:15.693Z,11.89
2019-01-14T14:00:44.962Z,11.38
2019-01-14T14:03:14.235Z,11.41
2019-01-14T14:15:52.210Z,15.82
2019-01-14T14:21:58.855Z,20.70
2019-01-14T14:24:31.063Z,22.55
2019-01-14T14:27:00.393Z,21.81
2019-01-14T14:29:29.756Z,21.62
2019-01-14T14:31:59.204Z,21.71
2019-01-14T14:34:28.821Z,21.73
2019-01-14T14:36:58.694Z,21.54
2019-01-14T14:39:29.481Z,21.36
2019-01-14T14:41:58.759Z,21.24
2019-01-14T14:44:28.095Z,21.17
2019-01-14T14:46:57.380Z,21.08
2019-01-14T14:49:27.929Z,21.04
2019-01-14T14:57:47.588Z,21.78
2019-01-14T15:00:19.243Z,21.01
2019-01-14T15:02:46.480Z,20.89
2019-01-14T15:05:13.760Z,21.09
2019-01-14T15:07:40.910Z,21.27
2019-01-14T15:10:10.256Z,21.42
2019-01-14T15:12:37.338Z,21.50
2019-01-14T15:14:12.928Z,21.66
2019-01-14T15:14:34.973Z,21.61
2019-01-14T15:14:57.422Z,21.63
2019-01-14T15:15:21.549Z,21.63
2019-01-14T15:15:43.596Z,21.65
2019-01-14T15:16:05.647Z,21.64
2019-01-14T15:16:27.693Z,21.65
2019-01-14T15:17:20.679Z,21.71
2019-01-14T15:17:42.748Z,21.67
2019-01-14T15:18:04.950Z,21.67
2019-01-14T15:18:27.042Z,21.67
2019-01-14T15:18:49.089Z,21.68
2019-01-14T15:19:11.424Z,21.69
2019-01-14T15:19:33.487Z,21.68
2019-01-14T15:19:55.565Z,21.69
2019-01-14T15:20:18.430Z,21.70
2019-01-14T15:20:40.471Z,21.70
2019-01-14T15:23:34.230Z,21.75
2019-01-14T15:26:01.438Z,21.70
2019-01-14T15:28:28.551Z,21.70
2019-01-14T15:30:55.660Z,21.69
2019-01-14T15:33:22.762Z,21.70
2019-01-14T15:35:49.820Z,21.71
2019-01-14T15:38:17.034Z,21.70
2019-01-14T15:40:44.074Z,21.69
2019-01-14T15:43:11.199Z,21.65
2019-01-14T15:45:38.332Z,21.67
2019-01-14T15:48:05.402Z,21.70
2019-01-14T15:50:32.507Z,21.67
2019-01-14T15:52:59.599Z,21.62
2019-01-14T15:55:26.774Z,21.59
2019-01-14T15:57:54.203Z,21.55
2019-01-14T16:00:21.382Z,21.55
2019-01-14T16:02:48.624Z,21.60
2019-01-14T16:05:16.386Z,21.61
2019-01-14T16:07:43.605Z,21.63
2019-01-14T16:10:13.541Z,21.65
2019-01-14T16:12:40.636Z,21.66
2019-01-14T16:15:08.158Z,21.67
2019-01-14T16:17:35.269Z,21.69
2019-01-14T16:20:02.673Z,21.70
2019-01-14T16:22:29.940Z,21.68
2019-01-14T16:24:57.125Z,21.67
2019-01-14T16:27:24.202Z,21.63
2019-01-14T16:29:51.346Z,21.56
2019-01-14T16:32:18.482Z,21.51
2019-01-14T16:34:45.566Z,21.45
2019-01-14T16:37:12.760Z,21.43
2019-01-14T16:39:39.934Z,21.38
2019-01-14T16:42:07.109Z,21.37
2019-01-14T16:44:34.133Z,21.33
2019-01-14T16:47:01.591Z,21.25
2019-01-14T16:49:28.666Z,21.19
2019-01-14T16:51:55.749Z,21.20
2019-01-14T16:54:24.221Z,21.18
2019-01-14T16:56:51.414Z,21.12
2019-01-14T16:59:18.580Z,21.07
2019-01-14T17:01:45.657Z,21.05
2019-01-14T17:04:12.971Z,21.02
2019-01-14T17:06:40.055Z,21.00
2019-01-14T17:09:08.219Z,20.98
2019-01-14T17:11:35.540Z,21.00
2019-01-14T17:14:03.076Z,21.00
2019-01-14T17:16:30.285Z,21.03
2019-01-14T17:18:57.374Z,21.03
2019-01-14T17:21:24.460Z,21.07
2019-01-14T17:23:51.588Z,21.09
2019-01-14T17:26:18.827Z,21.11
2019-01-14T17:28:46.013Z,21.12
2019-01-14T17:31:13.084Z,21.11
2019-01-14T17:33:41.347Z,21.12
2019-01-14T17:36:08.480Z,21.14
2019-01-14T17:38:35.595Z,21.15
2019-01-14T17:41:02.793Z,21.15
2019-01-14T17:43:29.911Z,21.15
2019-01-14T17:47:38.563Z,21.28
2019-01-14T17:50:08.657Z,21.35
2019-01-14T17:52:35.731Z,21.38
2019-01-14T17:55:03.438Z,21.38
2019-01-14T17:57:30.720Z,21.37
2019-01-14T17:59:57.898Z,21.36
2019-01-14T18:31:35.729Z,18.90
2019-01-14T18:34:02.923Z,12.58
2019-01-14T18:36:30.002Z,10.14
2019-01-14T18:38:57.075Z,8.37
2019-01-14T18:41:24.189Z,7.21
2019-01-14T18:43:51.270Z,5.89
2019-01-14T18:46:18.382Z,5.25
2019-01-14T18:48:45.441Z,4.80
2019-01-14T18:51:12.488Z,4.53
2019-01-14T18:53:39.571Z,4.32
2019-01-14T18:56:08.053Z,4.12
2019-01-14T18:58:35.290Z,3.96
2019-01-14T19:01:39.304Z,3.84
2019-01-14T19:04:06.381Z,3.66
2019-01-14T19:06:33.530Z,3.57
2019-01-14T19:09:00.631Z,3.44
2019-01-14T19:11:29.490Z,3.33
2019-01-14T19:13:56.701Z,3.27
2019-01-14T19:16:25.767Z,3.26
2019-01-14T19:18:52.921Z,3.18
2019-01-14T19:21:20.143Z,3.12
2019-01-14T19:23:48.286Z,3.08
2019-01-14T19:26:15.392Z,3.02
2019-01-14T19:28:42.444Z,3.03
2019-01-14T19:31:09.665Z,3.05
2019-01-14T19:33:36.744Z,3.01
2019-01-14T19:36:24.079Z,2.99
2019-01-14T19:38:51.201Z,2.99
2019-01-14T19:41:57.010Z,2.97
2019-01-14T19:44:24.097Z,3.00
2019-01-14T19:46:51.168Z,3.08
2019-01-14T19:49:18.513Z,3.15
2019-01-14T19:51:45.571Z,3.18
2019-01-14T19:54:12.805Z,3.19
2019-01-14T19:56:39.944Z,3.18
2019-01-14T20:02:47.990Z,3.25
2019-01-14T20:05:15.058Z,3.24
2019-01-14T20:07:42.236Z,3.23
2019-01-14T20:10:10.960Z,3.24
2019-01-14T20:12:38.064Z,3.20
2019-01-14T20:15:07.156Z,3.24
2019-01-14T20:17:34.420Z,3.22
2019-01-14T20:20:01.703Z,3.21
2019-01-14T20:22:28.877Z,3.20
2019-01-14T20:24:56.418Z,3.16
2019-01-14T20:27:23.501Z,3.13
2019-01-14T20:29:50.736Z,3.08
2019-01-14T20:32:17.927Z,3.06
2019-01-14T20:34:45.094Z,3.10
2019-01-14T20:37:12.251Z,3.08
2019-01-14T20:39:39.730Z,3.06
2019-01-14T20:42:06.905Z,3.03
2019-01-14T20:44:33.932Z,3.03
2019-01-14T20:47:01.229Z,2.96
2019-01-14T20:49:28.279Z,3.00
2019-01-14T20:51:55.322Z,3.06
2019-01-14T20:54:22.432Z,3.12
2019-01-14T20:56:49.867Z,3.14
2019-01-14T20:59:16.908Z,3.15
2019-01-14T21:01:43.952Z,3.18
2019-01-14T21:04:11.212Z,3.23
2019-01-14T21:06:38.381Z,3.24
2019-01-14T21:09:06.508Z,3.24
2019-01-14T21:11:33.631Z,3.23
2019-01-14T21:14:00.744Z,3.24
2019-01-14T21:16:27.850Z,3.21
2019-01-14T21:18:54.917Z,3.23
2019-01-14T21:21:22.094Z,3.18
2019-01-14T21:23:49.164Z,3.07
2019-01-14T21:26:16.208Z,2.98
2019-01-14T21:28:43.546Z,2.92
2019-01-14T21:31:10.692Z,2.87
2019-01-14T21:33:37.880Z,2.80
2019-01-14T21:36:05.199Z,2.75
2019-01-14T21:39:09.425Z,2.60
2019-01-14T21:41:37.099Z,2.53
2019-01-14T21:44:04.292Z,2.53
2019-01-14T21:46:31.523Z,2.53
2019-01-14T21:48:58.655Z,2.50
2019-01-14T21:51:25.756Z,2.47
2019-01-14T21:53:52.862Z,2.42
2019-01-14T21:56:19.910Z,2.40
2019-01-14T21:58:49.308Z,2.35
2019-01-14T22:01:16.535Z,2.33
2019-01-14T22:03:43.701Z,2.31
2019-01-14T22:06:10.952Z,2.25
2019-01-14T22:08:50.506Z,2.25
2019-01-14T22:11:17.581Z,2.23
2019-01-14T22:13:44.642Z,2.23
2019-01-14T22:16:12.056Z,2.21
2019-01-14T22:18:39.197Z,2.21
2019-01-14T22:21:08.128Z,2.18
2019-01-14T22:23:36.925Z,2.19
2019-01-14T22:26:04.984Z,2.13
2019-01-14T22:28:32.168Z,2.07
2019-01-14T22:30:59.254Z,2.05
2019-01-14T22:33:26.351Z,2.07
2019-01-14T22:35:53.466Z,2.07
2019-01-14T22:38:20.565Z,2.03
2019-01-14T22:40:47.757Z,2.04
2019-01-14T22:43:14.850Z,2.01
2019-01-14T22:45:42.026Z,1.95
2019-01-14T22:48:09.225Z,1.95
2019-01-14T22:51:14.053Z,1.92
2019-01-14T22:53:41.342Z,1.92
2019-01-14T22:56:08.711Z,1.89
2019-01-14T22:59:14.947Z,1.79
2019-01-14T23:01:46.913Z,1.75
2019-01-14T23:04:13.984Z,1.77
2019-01-14T23:07:00.532Z,1.80
2019-01-14T23:09:27.572Z,1.79
2019-01-14T23:11:54.609Z,1.73
2019-01-14T23:14:21.708Z,1.77
2019-01-14T23:16:48.770Z,1.78
2019-01-14T23:19:16.233Z,1.76
2019-01-14T23:21:44.491Z,1.73
2019-01-14T23:24:11.569Z,1.71
2019-01-14T23:26:38.666Z,1.71
2019-01-14T23:29:05.776Z,1.69
2019-01-14T23:31:33.186Z,1.64
2019-01-14T23:34:00.232Z,1.61
2019-01-14T23:36:27.744Z,1.63
2019-01-14T23:38:54.795Z,1.58
2019-01-14T23:41:21.841Z,1.52
2019-01-14T23:43:48.949Z,1.56
2019-01-14T23:46:16.002Z,1.58
2019-01-14T23:48:43.205Z,1.55
2019-01-14T23:51:10.296Z,1.57
2019-01-14T23:57:18.223Z,1.58
2019-01-14T23:59:45.374Z,1.52
